sensor_id;sensor_type;location;lat;lon;timestamp;temperature;humidity
16287;DHT22;8251;53.568;10.018;2023-08-08T00:02:20;17.40;84.90
16287;DHT22;8251;53.568;10.018;2023-08-08T00:04:48;17.40;85.30
16287;DHT22;8251;53.568;10.018;2023-08-08T00:07:15;17.40;85.50
16287;DHT22;8251;53.568;10.018;2023-08-08T00:09:42;17.30;85.40
16287;DHT22;8251;53.568;10.018;2023-08-08T00:12:09;17.30;85.60
16287;DHT22;8251;53.568;10.018;2023-08-08T00:14:36;17.30;86.10
16287;DHT22;8251;53.568;10.018;2023-08-08T00:17:03;17.30;86.20
16287;DHT22;8251;53.568;10.018;2023-08-08T00:19:30;17.30;86.70
16287;DHT22;8251;53.568;10.018;2023-08-08T00:21:58;17.30;87.10
16287;DHT22;8251;53.568;10.018;2023-08-08T00:24:25;17.30;87.40
16287;DHT22;8251;53.568;10.018;2023-08-08T00:26:52;17.30;87.70
16287;DHT22;8251;53.568;10.018;2023-08-08T00:29:19;17.30;87.80
16287;DHT22;8251;53.568;10.018;2023-08-08T00:31:45;17.30;87.70
16287;DHT22;8251;53.568;10.018;2023-08-08T00:34:12;17.20;88.10
16287;DHT22;8251;53.568;10.018;2023-08-08T00:36:39;17.20;88.50
16287;DHT22;8251;53.568;10.018;2023-08-08T00:39:08;17.20;88.90
16287;DHT22;8251;53.568;10.018;2023-08-08T00:41:35;17.20;89.50
16287;DHT22;8251;53.568;10.018;2023-08-08T00:44:02;17.20;89.70
16287;DHT22;8251;53.568;10.018;2023-08-08T00:46:29;17.10;89.90
16287;DHT22;8251;53.568;10.018;2023-08-08T00:48:56;17.20;90.10
16287;DHT22;8251;53.568;10.018;2023-08-08T00:51:24;17.10;90.20
16287;DHT22;8251;53.568;10.018;2023-08-08T00:53:51;17.10;90.20
16287;DHT22;8251;53.568;10.018;2023-08-08T00:56:20;17.10;90.30
16287;DHT22;8251;53.568;10.018;2023-08-08T00:58:47;17.10;90.20
16287;DHT22;8251;53.568;10.018;2023-08-08T01:01:17;17.10;90.20
16287;DHT22;8251;53.568;10.018;2023-08-08T01:03:44;17.10;90.30
16287;DHT22;8251;53.568;10.018;2023-08-08T01:06:19;17.00;90.30
16287;DHT22;8251;53.568;10.018;2023-08-08T01:08:54;17.10;90.30
16287;DHT22;8251;53.568;10.018;2023-08-08T01:11:24;17.00;90.40
16287;DHT22;8251;53.568;10.018;2023-08-08T01:13:52;17.10;90.50
16287;DHT22;8251;53.568;10.018;2023-08-08T01:16:21;17.00;90.50
16287;DHT22;8251;53.568;10.018;2023-08-08T01:18:49;17.00;90.50
16287;DHT22;8251;53.568;10.018;2023-08-08T01:21:16;17.00;90.50
16287;DHT22;8251;53.568;10.018;2023-08-08T01:23:45;17.00;90.50
16287;DHT22;8251;53.568;10.018;2023-08-08T01:26:16;17.00;90.60
16287;DHT22;8251;53.568;10.018;2023-08-08T01:28:43;17.00;90.60
16287;DHT22;8251;53.568;10.018;2023-08-08T01:31:10;17.00;90.70
16287;DHT22;8251;53.568;10.018;2023-08-08T01:33:37;17.00;90.70
16287;DHT22;8251;53.568;10.018;2023-08-08T01:36:12;17.00;90.80
16287;DHT22;8251;53.568;10.018;2023-08-08T01:38:42;17.00;90.80
16287;DHT22;8251;53.568;10.018;2023-08-08T01:41:10;17.00;90.80
16287;DHT22;8251;53.568;10.018;2023-08-08T01:43:38;17.00;90.80
16287;DHT22;8251;53.568;10.018;2023-08-08T01:46:05;17.00;90.70
16287;DHT22;8251;53.568;10.018;2023-08-08T01:48:33;17.00;90.70
16287;DHT22;8251;53.568;10.018;2023-08-08T01:51:00;17.00;90.70
16287;DHT22;8251;53.568;10.018;2023-08-08T01:53:27;16.90;90.70
16287;DHT22;8251;53.568;10.018;2023-08-08T01:55:54;17.00;90.60
16287;DHT22;8251;53.568;10.018;2023-08-08T01:58:21;17.00;90.60
16287;DHT22;8251;53.568;10.018;2023-08-08T02:00:49;17.00;90.60
16287;DHT22;8251;53.568;10.018;2023-08-08T02:03:16;17.00;91.00
16287;DHT22;8251;53.568;10.018;2023-08-08T02:05:42;17.00;90.60
16287;DHT22;8251;53.568;10.018;2023-08-08T02:08:09;17.00;90.60
16287;DHT22;8251;53.568;10.018;2023-08-08T02:10:37;17.00;90.90
16287;DHT22;8251;53.568;10.018;2023-08-08T02:13:04;17.00;90.50
16287;DHT22;8251;53.568;10.018;2023-08-08T02:15:31;17.00;90.40
16287;DHT22;8251;53.568;10.018;2023-08-08T02:18:00;17.00;90.20
16287;DHT22;8251;53.568;10.018;2023-08-08T02:20:29;17.00;90.20
16287;DHT22;8251;53.568;10.018;2023-08-08T02:22:56;17.00;90.20
16287;DHT22;8251;53.568;10.018;2023-08-08T02:25:22;17.00;90.10
16287;DHT22;8251;53.568;10.018;2023-08-08T02:27:49;17.00;90.10
16287;DHT22;8251;53.568;10.018;2023-08-08T02:30:16;17.00;90.10
16287;DHT22;8251;53.568;10.018;2023-08-08T02:32:43;17.00;90.10
16287;DHT22;8251;53.568;10.018;2023-08-08T02:35:12;17.00;90.10
16287;DHT22;8251;53.568;10.018;2023-08-08T02:37:38;17.00;90.30
16287;DHT22;8251;53.568;10.018;2023-08-08T02:40:07;17.00;90.30
16287;DHT22;8251;53.568;10.018;2023-08-08T02:42:35;17.00;90.40
16287;DHT22;8251;53.568;10.018;2023-08-08T02:45:02;17.00;90.50
16287;DHT22;8251;53.568;10.018;2023-08-08T02:47:29;16.90;90.50
16287;DHT22;8251;53.568;10.018;2023-08-08T02:49:56;16.90;90.60
16287;DHT22;8251;53.568;10.018;2023-08-08T02:52:24;16.90;90.60
16287;DHT22;8251;53.568;10.018;2023-08-08T02:54:51;16.90;90.50
16287;DHT22;8251;53.568;10.018;2023-08-08T02:57:18;16.90;90.60
16287;DHT22;8251;53.568;10.018;2023-08-08T02:59:45;16.90;90.60
16287;DHT22;8251;53.568;10.018;2023-08-08T03:02:12;16.90;90.60
16287;DHT22;8251;53.568;10.018;2023-08-08T03:04:39;16.90;90.60
16287;DHT22;8251;53.568;10.018;2023-08-08T03:07:06;16.90;90.60
16287;DHT22;8251;53.568;10.018;2023-08-08T03:09:34;16.90;90.60
16287;DHT22;8251;53.568;10.018;2023-08-08T03:12:01;16.90;90.60
16287;DHT22;8251;53.568;10.018;2023-08-08T03:14:28;16.90;90.70
16287;DHT22;8251;53.568;10.018;2023-08-08T03:16:55;16.90;90.70
16287;DHT22;8251;53.568;10.018;2023-08-08T03:19:22;16.90;90.70
16287;DHT22;8251;53.568;10.018;2023-08-08T03:21:48;16.90;90.60
16287;DHT22;8251;53.568;10.018;2023-08-08T03:24:15;16.90;90.70
16287;DHT22;8251;53.568;10.018;2023-08-08T03:26:44;16.90;90.70
16287;DHT22;8251;53.568;10.018;2023-08-08T03:29:11;16.90;90.50
16287;DHT22;8251;53.568;10.018;2023-08-08T03:31:38;16.90;90.50
16287;DHT22;8251;53.568;10.018;2023-08-08T03:34:05;16.90;90.60
16287;DHT22;8251;53.568;10.018;2023-08-08T03:36:32;16.90;90.70
16287;DHT22;8251;53.568;10.018;2023-08-08T03:38:59;17.00;90.80
16287;DHT22;8251;53.568;10.018;2023-08-08T03:41:26;16.90;91.20
16287;DHT22;8251;53.568;10.018;2023-08-08T03:43:54;16.90;90.90
16287;DHT22;8251;53.568;10.018;2023-08-08T03:46:21;16.90;90.90
16287;DHT22;8251;53.568;10.018;2023-08-08T03:48:49;16.90;90.90
16287;DHT22;8251;53.568;10.018;2023-08-08T03:51:15;16.90;91.00
16287;DHT22;8251;53.568;10.018;2023-08-08T03:53:42;16.90;90.90
16287;DHT22;8251;53.568;10.018;2023-08-08T03:56:09;16.90;90.90
16287;DHT22;8251;53.568;10.018;2023-08-08T03:58:37;16.90;90.90
16287;DHT22;8251;53.568;10.018;2023-08-08T04:01:05;16.90;90.80
16287;DHT22;8251;53.568;10.018;2023-08-08T04:03:33;16.90;90.80
16287;DHT22;8251;53.568;10.018;2023-08-08T04:05:59;17.00;90.80
16287;DHT22;8251;53.568;10.018;2023-08-08T04:08:26;17.00;90.80
16287;DHT22;8251;53.568;10.018;2023-08-08T04:10:53;17.00;90.60
16287;DHT22;8251;53.568;10.018;2023-08-08T04:13:20;17.00;90.60
16287;DHT22;8251;53.568;10.018;2023-08-08T04:15:47;16.90;90.60
16287;DHT22;8251;53.568;10.018;2023-08-08T04:18:18;16.90;90.60
16287;DHT22;8251;53.568;10.018;2023-08-08T04:20:46;17.00;90.60
16287;DHT22;8251;53.568;10.018;2023-08-08T04:23:13;17.00;90.60
16287;DHT22;8251;53.568;10.018;2023-08-08T04:25:39;17.00;90.60
16287;DHT22;8251;53.568;10.018;2023-08-08T04:28:06;17.00;90.60
16287;DHT22;8251;53.568;10.018;2023-08-08T04:30:33;17.00;90.50
16287;DHT22;8251;53.568;10.018;2023-08-08T04:33:01;17.00;90.60
16287;DHT22;8251;53.568;10.018;2023-08-08T04:35:29;17.00;90.50
16287;DHT22;8251;53.568;10.018;2023-08-08T04:37:56;17.00;90.40
16287;DHT22;8251;53.568;10.018;2023-08-08T04:40:22;17.00;90.40
16287;DHT22;8251;53.568;10.018;2023-08-08T04:42:50;17.00;90.40
16287;DHT22;8251;53.568;10.018;2023-08-08T04:45:17;16.90;90.40
16287;DHT22;8251;53.568;10.018;2023-08-08T04:47:44;17.00;90.40
16287;DHT22;8251;53.568;10.018;2023-08-08T04:50:11;16.90;90.40
16287;DHT22;8251;53.568;10.018;2023-08-08T04:52:40;17.00;90.30
16287;DHT22;8251;53.568;10.018;2023-08-08T04:55:07;17.00;90.40
16287;DHT22;8251;53.568;10.018;2023-08-08T04:57:34;16.90;90.20
16287;DHT22;8251;53.568;10.018;2023-08-08T05:00:01;17.00;90.30
16287;DHT22;8251;53.568;10.018;2023-08-08T05:02:30;17.00;90.30
16287;DHT22;8251;53.568;10.018;2023-08-08T05:04:57;17.00;90.30
16287;DHT22;8251;53.568;10.018;2023-08-08T05:07:26;17.00;90.20
16287;DHT22;8251;53.568;10.018;2023-08-08T05:09:54;17.00;90.60
16287;DHT22;8251;53.568;10.018;2023-08-08T05:12:21;17.00;90.30
16287;DHT22;8251;53.568;10.018;2023-08-08T05:14:47;17.00;90.20
16287;DHT22;8251;53.568;10.018;2023-08-08T05:17:14;17.00;90.10
16287;DHT22;8251;53.568;10.018;2023-08-08T05:19:41;17.00;90.10
16287;DHT22;8251;53.568;10.018;2023-08-08T05:22:08;17.00;90.20
16287;DHT22;8251;53.568;10.018;2023-08-08T05:24:35;17.00;90.20
16287;DHT22;8251;53.568;10.018;2023-08-08T05:27:04;17.10;90.20
16287;DHT22;8251;53.568;10.018;2023-08-08T05:29:30;17.10;90.20
16287;DHT22;8251;53.568;10.018;2023-08-08T05:31:57;17.10;90.10
16287;DHT22;8251;53.568;10.018;2023-08-08T05:34:24;17.20;90.10
16287;DHT22;8251;53.568;10.018;2023-08-08T05:36:51;17.20;90.10
16287;DHT22;8251;53.568;10.018;2023-08-08T05:39:19;17.30;90.00
16287;DHT22;8251;53.568;10.018;2023-08-08T05:41:47;17.30;90.00
16287;DHT22;8251;53.568;10.018;2023-08-08T05:44:16;17.40;89.90
16287;DHT22;8251;53.568;10.018;2023-08-08T05:46:43;17.40;89.70
16287;DHT22;8251;53.568;10.018;2023-08-08T05:49:09;17.40;89.30
16287;DHT22;8251;53.568;10.018;2023-08-08T05:51:37;17.50;89.00
16287;DHT22;8251;53.568;10.018;2023-08-08T05:54:03;17.50;89.00
16287;DHT22;8251;53.568;10.018;2023-08-08T05:56:35;17.60;89.00
16287;DHT22;8251;53.568;10.018;2023-08-08T05:59:04;17.60;89.00
16287;DHT22;8251;53.568;10.018;2023-08-08T06:01:34;17.60;88.80
16287;DHT22;8251;53.568;10.018;2023-08-08T06:04:01;17.60;89.00
16287;DHT22;8251;53.568;10.018;2023-08-08T06:06:29;17.70;89.20
16287;DHT22;8251;53.568;10.018;2023-08-08T06:08:55;17.70;89.10
16287;DHT22;8251;53.568;10.018;2023-08-08T06:11:22;17.70;89.20
16287;DHT22;8251;53.568;10.018;2023-08-08T06:13:49;17.80;88.80
16287;DHT22;8251;53.568;10.018;2023-08-08T06:16:16;17.70;89.50
16287;DHT22;8251;53.568;10.018;2023-08-08T06:18:45;17.60;88.80
16287;DHT22;8251;53.568;10.018;2023-08-08T06:21:12;17.80;89.00
16287;DHT22;8251;53.568;10.018;2023-08-08T06:23:39;17.80;89.00
16287;DHT22;8251;53.568;10.018;2023-08-08T06:26:06;17.80;88.90
16287;DHT22;8251;53.568;10.018;2023-08-08T06:28:33;17.80;88.60
16287;DHT22;8251;53.568;10.018;2023-08-08T06:30:59;17.80;88.50
16287;DHT22;8251;53.568;10.018;2023-08-08T06:33:26;17.90;88.60
16287;DHT22;8251;53.568;10.018;2023-08-08T06:35:56;17.90;89.00
16287;DHT22;8251;53.568;10.018;2023-08-08T06:38:24;18.00;88.90
16287;DHT22;8251;53.568;10.018;2023-08-08T06:40:51;18.00;88.80
16287;DHT22;8251;53.568;10.018;2023-08-08T06:43:18;18.10;88.60
16287;DHT22;8251;53.568;10.018;2023-08-08T06:45:45;18.10;88.20
16287;DHT22;8251;53.568;10.018;2023-08-08T06:48:11;18.20;87.20
16287;DHT22;8251;53.568;10.018;2023-08-08T06:50:38;18.20;87.60
16287;DHT22;8251;53.568;10.018;2023-08-08T06:53:07;18.20;87.00
16287;DHT22;8251;53.568;10.018;2023-08-08T06:55:33;18.20;87.30
16287;DHT22;8251;53.568;10.018;2023-08-08T06:58:00;18.30;87.20
16287;DHT22;8251;53.568;10.018;2023-08-08T07:00:27;18.50;87.10
16287;DHT22;8251;53.568;10.018;2023-08-08T07:02:54;18.70;86.40
16287;DHT22;8251;53.568;10.018;2023-08-08T07:05:22;18.80;85.40
16287;DHT22;8251;53.568;10.018;2023-08-08T07:07:49;18.90;85.00
16287;DHT22;8251;53.568;10.018;2023-08-08T07:10:18;18.90;85.00
16287;DHT22;8251;53.568;10.018;2023-08-08T07:12:45;18.90;84.60
16287;DHT22;8251;53.568;10.018;2023-08-08T07:15:12;18.80;84.20
16287;DHT22;8251;53.568;10.018;2023-08-08T07:17:39;18.80;84.40
16287;DHT22;8251;53.568;10.018;2023-08-08T07:20:06;18.80;84.20
16287;DHT22;8251;53.568;10.018;2023-08-08T07:22:34;18.80;84.00
16287;DHT22;8251;53.568;10.018;2023-08-08T07:25:01;18.80;83.80
16287;DHT22;8251;53.568;10.018;2023-08-08T07:27:31;18.90;83.60
16287;DHT22;8251;53.568;10.018;2023-08-08T07:29:58;18.90;84.20
16287;DHT22;8251;53.568;10.018;2023-08-08T07:32:26;18.90;84.40
16287;DHT22;8251;53.568;10.018;2023-08-08T07:34:53;19.00;84.30
16287;DHT22;8251;53.568;10.018;2023-08-08T07:37:20;19.00;83.90
16287;DHT22;8251;53.568;10.018;2023-08-08T07:39:50;19.20;83.80
16287;DHT22;8251;53.568;10.018;2023-08-08T07:42:17;19.50;83.30
16287;DHT22;8251;53.568;10.018;2023-08-08T07:44:45;19.90;82.90
16287;DHT22;8251;53.568;10.018;2023-08-08T07:47:13;20.30;81.70
16287;DHT22;8251;53.568;10.018;2023-08-08T07:49:39;20.80;80.30
16287;DHT22;8251;53.568;10.018;2023-08-08T07:52:07;21.20;78.20
16287;DHT22;8251;53.568;10.018;2023-08-08T07:54:37;21.50;76.90
16287;DHT22;8251;53.568;10.018;2023-08-08T07:57:12;21.70;76.40
16287;DHT22;8251;53.568;10.018;2023-08-08T07:59:43;21.80;75.90
16287;DHT22;8251;53.568;10.018;2023-08-08T08:02:12;21.80;75.70
16287;DHT22;8251;53.568;10.018;2023-08-08T08:04:38;21.60;75.20
16287;DHT22;8251;53.568;10.018;2023-08-08T08:07:08;21.40;76.00
16287;DHT22;8251;53.568;10.018;2023-08-08T08:09:42;21.20;77.10
16287;DHT22;8251;53.568;10.018;2023-08-08T08:12:12;21.20;77.60
16287;DHT22;8251;53.568;10.018;2023-08-08T08:14:39;21.00;77.30
16287;DHT22;8251;53.568;10.018;2023-08-08T08:17:05;20.90;77.70
16287;DHT22;8251;53.568;10.018;2023-08-08T08:19:34;20.80;78.30
16287;DHT22;8251;53.568;10.018;2023-08-08T08:22:01;20.60;78.50
16287;DHT22;8251;53.568;10.018;2023-08-08T08:24:28;20.50;79.60
16287;DHT22;8251;53.568;10.018;2023-08-08T08:26:55;20.40;80.00
16287;DHT22;8251;53.568;10.018;2023-08-08T08:29:22;20.30;80.50
16287;DHT22;8251;53.568;10.018;2023-08-08T08:31:49;20.20;80.50
16287;DHT22;8251;53.568;10.018;2023-08-08T08:34:19;20.10;80.40
16287;DHT22;8251;53.568;10.018;2023-08-08T08:36:53;20.10;80.00
16287;DHT22;8251;53.568;10.018;2023-08-08T08:39:22;20.00;79.80
16287;DHT22;8251;53.568;10.018;2023-08-08T08:41:56;19.90;79.70
16287;DHT22;8251;53.568;10.018;2023-08-08T08:44:27;19.90;80.10
16287;DHT22;8251;53.568;10.018;2023-08-08T08:46:58;19.80;80.30
16287;DHT22;8251;53.568;10.018;2023-08-08T08:49:30;19.80;80.20
16287;DHT22;8251;53.568;10.018;2023-08-08T08:52:06;19.70;80.10
16287;DHT22;8251;53.568;10.018;2023-08-08T08:54:36;19.70;79.50
16287;DHT22;8251;53.568;10.018;2023-08-08T08:57:03;19.70;79.20
16287;DHT22;8251;53.568;10.018;2023-08-08T08:59:31;19.70;79.50
16287;DHT22;8251;53.568;10.018;2023-08-08T09:01:58;19.80;79.10
16287;DHT22;8251;53.568;10.018;2023-08-08T09:04:28;19.90;78.60
16287;DHT22;8251;53.568;10.018;2023-08-08T09:06:55;20.00;78.50
16287;DHT22;8251;53.568;10.018;2023-08-08T09:09:24;20.10;77.70
16287;DHT22;8251;53.568;10.018;2023-08-08T09:11:52;20.20;76.60
16287;DHT22;8251;53.568;10.018;2023-08-08T09:14:21;20.20;76.60
16287;DHT22;8251;53.568;10.018;2023-08-08T09:16:49;20.10;76.40
16287;DHT22;8251;53.568;10.018;2023-08-08T09:19:17;20.00;76.80
16287;DHT22;8251;53.568;10.018;2023-08-08T09:21:44;19.90;76.90
16287;DHT22;8251;53.568;10.018;2023-08-08T09:24:11;20.00;77.50
16287;DHT22;8251;53.568;10.018;2023-08-08T09:26:40;19.90;77.80
16287;DHT22;8251;53.568;10.018;2023-08-08T09:29:08;20.00;78.00
16287;DHT22;8251;53.568;10.018;2023-08-08T09:31:36;20.00;77.60
16287;DHT22;8251;53.568;10.018;2023-08-08T09:34:04;20.00;77.20
16287;DHT22;8251;53.568;10.018;2023-08-08T09:36:32;20.10;77.20
16287;DHT22;8251;53.568;10.018;2023-08-08T09:39:00;20.10;77.30
16287;DHT22;8251;53.568;10.018;2023-08-08T09:41:28;20.20;77.00
16287;DHT22;8251;53.568;10.018;2023-08-08T09:43:56;20.10;77.00
16287;DHT22;8251;53.568;10.018;2023-08-08T09:46:24;20.10;76.60
16287;DHT22;8251;53.568;10.018;2023-08-08T09:48:51;20.00;77.00
16287;DHT22;8251;53.568;10.018;2023-08-08T09:51:20;19.90;77.30
16287;DHT22;8251;53.568;10.018;2023-08-08T09:53:48;19.90;77.80
16287;DHT22;8251;53.568;10.018;2023-08-08T09:56:16;19.80;77.90
16287;DHT22;8251;53.568;10.018;2023-08-08T09:58:45;19.80;78.80
16287;DHT22;8251;53.568;10.018;2023-08-08T10:01:14;19.80;79.00
16287;DHT22;8251;53.568;10.018;2023-08-08T10:03:41;19.80;79.30
16287;DHT22;8251;53.568;10.018;2023-08-08T10:06:09;19.70;79.40
16287;DHT22;8251;53.568;10.018;2023-08-08T10:08:37;19.70;78.90
16287;DHT22;8251;53.568;10.018;2023-08-08T10:11:05;19.70;79.70
16287;DHT22;8251;53.568;10.018;2023-08-08T10:13:35;19.60;81.10
16287;DHT22;8251;53.568;10.018;2023-08-08T10:16:07;19.50;82.40
16287;DHT22;8251;53.568;10.018;2023-08-08T10:18:35;19.40;83.40
16287;DHT22;8251;53.568;10.018;2023-08-08T10:21:04;19.20;84.10
16287;DHT22;8251;53.568;10.018;2023-08-08T10:23:36;19.20;84.90
16287;DHT22;8251;53.568;10.018;2023-08-08T10:26:04;19.10;85.30
16287;DHT22;8251;53.568;10.018;2023-08-08T10:28:32;19.10;85.60
16287;DHT22;8251;53.568;10.018;2023-08-08T10:31:01;19.00;85.80
16287;DHT22;8251;53.568;10.018;2023-08-08T10:33:42;18.90;86.20
16287;DHT22;8251;53.568;10.018;2023-08-08T10:36:10;18.90;86.70
16287;DHT22;8251;53.568;10.018;2023-08-08T10:38:41;18.80;87.40
16287;DHT22;8251;53.568;10.018;2023-08-08T10:41:10;18.70;87.30
16287;DHT22;8251;53.568;10.018;2023-08-08T10:43:38;18.70;87.20
16287;DHT22;8251;53.568;10.018;2023-08-08T10:46:07;18.70;87.10
16287;DHT22;8251;53.568;10.018;2023-08-08T10:48:33;18.70;87.80
16287;DHT22;8251;53.568;10.018;2023-08-08T10:51:06;18.80;88.30
16287;DHT22;8251;53.568;10.018;2023-08-08T10:53:33;18.90;87.70
16287;DHT22;8251;53.568;10.018;2023-08-08T10:56:04;18.90;87.80
16287;DHT22;8251;53.568;10.018;2023-08-08T10:58:36;18.90;87.70
16287;DHT22;8251;53.568;10.018;2023-08-08T11:01:03;19.00;87.60
16287;DHT22;8251;53.568;10.018;2023-08-08T11:03:34;19.00;87.40
16287;DHT22;8251;53.568;10.018;2023-08-08T11:06:03;19.00;87.00
16287;DHT22;8251;53.568;10.018;2023-08-08T11:08:31;18.90;86.70
16287;DHT22;8251;53.568;10.018;2023-08-08T11:10:59;18.90;86.70
16287;DHT22;8251;53.568;10.018;2023-08-08T11:13:26;18.80;86.90
16287;DHT22;8251;53.568;10.018;2023-08-08T11:15:53;18.90;87.10
16287;DHT22;8251;53.568;10.018;2023-08-08T11:18:20;19.00;87.10
16287;DHT22;8251;53.568;10.018;2023-08-08T11:20:48;19.10;86.70
16287;DHT22;8251;53.568;10.018;2023-08-08T11:23:17;19.20;85.90
16287;DHT22;8251;53.568;10.018;2023-08-08T11:25:47;19.20;85.50
16287;DHT22;8251;53.568;10.018;2023-08-08T11:28:16;19.20;85.10
16287;DHT22;8251;53.568;10.018;2023-08-08T11:30:44;19.20;85.40
16287;DHT22;8251;53.568;10.018;2023-08-08T11:33:13;19.10;85.50
16287;DHT22;8251;53.568;10.018;2023-08-08T11:35:44;19.00;85.90
16287;DHT22;8251;53.568;10.018;2023-08-08T11:38:14;18.90;86.20
16287;DHT22;8251;53.568;10.018;2023-08-08T11:40:43;18.80;86.70
16287;DHT22;8251;53.568;10.018;2023-08-08T11:43:11;18.90;87.10
16287;DHT22;8251;53.568;10.018;2023-08-08T11:45:39;19.20;88.30
16287;DHT22;8251;53.568;10.018;2023-08-08T11:48:08;19.50;87.60
16287;DHT22;8251;53.568;10.018;2023-08-08T11:50:37;19.60;86.40
16287;DHT22;8251;53.568;10.018;2023-08-08T11:53:04;19.60;84.80
16287;DHT22;8251;53.568;10.018;2023-08-08T11:55:32;19.60;84.30
16287;DHT22;8251;53.568;10.018;2023-08-08T11:58:01;19.60;84.70
16287;DHT22;8251;53.568;10.018;2023-08-08T12:00:29;19.50;85.10
16287;DHT22;8251;53.568;10.018;2023-08-08T12:02:57;19.40;85.30
16287;DHT22;8251;53.568;10.018;2023-08-08T12:05:24;19.40;85.50
16287;DHT22;8251;53.568;10.018;2023-08-08T12:07:51;19.20;85.60
16287;DHT22;8251;53.568;10.018;2023-08-08T12:10:21;19.40;87.40
16287;DHT22;8251;53.568;10.018;2023-08-08T12:12:53;19.60;87.90
16287;DHT22;8251;53.568;10.018;2023-08-08T12:15:22;19.90;86.10
16287;DHT22;8251;53.568;10.018;2023-08-08T12:17:50;20.10;85.60
16287;DHT22;8251;53.568;10.018;2023-08-08T12:20:18;20.10;85.00
16287;DHT22;8251;53.568;10.018;2023-08-08T12:22:45;20.40;85.70
16287;DHT22;8251;53.568;10.018;2023-08-08T12:25:13;20.70;85.40
16287;DHT22;8251;53.568;10.018;2023-08-08T12:27:40;21.00;85.00
16287;DHT22;8251;53.568;10.018;2023-08-08T12:30:08;21.20;83.10
16287;DHT22;8251;53.568;10.018;2023-08-08T12:32:37;21.40;82.00
16287;DHT22;8251;53.568;10.018;2023-08-08T12:35:05;21.60;80.80
16287;DHT22;8251;53.568;10.018;2023-08-08T12:37:33;21.80;80.00
16287;DHT22;8251;53.568;10.018;2023-08-08T12:39:59;21.90;79.50
16287;DHT22;8251;53.568;10.018;2023-08-08T12:42:28;22.10;78.60
16287;DHT22;8251;53.568;10.018;2023-08-08T12:44:55;22.30;77.40
16287;DHT22;8251;53.568;10.018;2023-08-08T12:47:23;22.60;77.50
16287;DHT22;8251;53.568;10.018;2023-08-08T12:49:52;22.90;77.10
16287;DHT22;8251;53.568;10.018;2023-08-08T12:52:19;23.00;75.60
16287;DHT22;8251;53.568;10.018;2023-08-08T12:54:51;23.00;75.40
16287;DHT22;8251;53.568;10.018;2023-08-08T12:57:29;23.20;74.40
16287;DHT22;8251;53.568;10.018;2023-08-08T13:00:01;23.30;74.20
16287;DHT22;8251;53.568;10.018;2023-08-08T13:02:28;23.40;73.50
16287;DHT22;8251;53.568;10.018;2023-08-08T13:04:56;23.30;73.50
16287;DHT22;8251;53.568;10.018;2023-08-08T13:07:23;23.20;74.50
16287;DHT22;8251;53.568;10.018;2023-08-08T13:09:49;22.90;74.00
16287;DHT22;8251;53.568;10.018;2023-08-08T13:12:16;22.60;73.30
16287;DHT22;8251;53.568;10.018;2023-08-08T13:14:43;22.10;73.90
16287;DHT22;8251;53.568;10.018;2023-08-08T13:17:10;21.80;75.50
16287;DHT22;8251;53.568;10.018;2023-08-08T13:19:37;21.40;75.60
16287;DHT22;8251;53.568;10.018;2023-08-08T13:22:05;21.10;76.60
16287;DHT22;8251;53.568;10.018;2023-08-08T13:24:32;20.90;77.80
16287;DHT22;8251;53.568;10.018;2023-08-08T13:26:59;20.90;80.20
16287;DHT22;8251;53.568;10.018;2023-08-08T13:29:26;21.00;80.80
16287;DHT22;8251;53.568;10.018;2023-08-08T13:31:53;21.10;80.80
16287;DHT22;8251;53.568;10.018;2023-08-08T13:34:22;21.30;80.20
16287;DHT22;8251;53.568;10.018;2023-08-08T13:36:54;21.40;79.60
16287;DHT22;8251;53.568;10.018;2023-08-08T13:39:24;21.60;79.40
16287;DHT22;8251;53.568;10.018;2023-08-08T13:41:51;21.80;79.00
16287;DHT22;8251;53.568;10.018;2023-08-08T13:44:18;22.00;78.50
16287;DHT22;8251;53.568;10.018;2023-08-08T13:46:45;22.10;77.80
16287;DHT22;8251;53.568;10.018;2023-08-08T13:49:12;22.00;76.60
16287;DHT22;8251;53.568;10.018;2023-08-08T13:51:39;21.90;76.70
16287;DHT22;8251;53.568;10.018;2023-08-08T13:54:06;21.80;76.90
16287;DHT22;8251;53.568;10.018;2023-08-08T13:56:35;21.60;76.40
16287;DHT22;8251;53.568;10.018;2023-08-08T13:59:03;21.30;76.60
16287;DHT22;8251;53.568;10.018;2023-08-08T14:01:30;21.00;76.60
16287;DHT22;8251;53.568;10.018;2023-08-08T14:03:57;20.80;77.40
16287;DHT22;8251;53.568;10.018;2023-08-08T14:06:23;20.50;77.50
16287;DHT22;8251;53.568;10.018;2023-08-08T14:08:51;20.30;78.70
16287;DHT22;8251;53.568;10.018;2023-08-08T14:11:19;20.10;79.60
16287;DHT22;8251;53.568;10.018;2023-08-08T14:13:47;20.00;80.10
16287;DHT22;8251;53.568;10.018;2023-08-08T14:16:14;19.90;81.10
16287;DHT22;8251;53.568;10.018;2023-08-08T14:18:41;19.70;81.80
16287;DHT22;8251;53.568;10.018;2023-08-08T14:21:08;19.60;82.00
16287;DHT22;8251;53.568;10.018;2023-08-08T14:23:35;19.60;82.80
16287;DHT22;8251;53.568;10.018;2023-08-08T14:26:02;19.60;83.20
16287;DHT22;8251;53.568;10.018;2023-08-08T14:28:29;19.60;83.90
16287;DHT22;8251;53.568;10.018;2023-08-08T14:30:57;19.60;84.10
16287;DHT22;8251;53.568;10.018;2023-08-08T14:33:24;19.60;84.10
16287;DHT22;8251;53.568;10.018;2023-08-08T14:35:51;19.50;83.30
16287;DHT22;8251;53.568;10.018;2023-08-08T14:38:18;19.50;83.50
16287;DHT22;8251;53.568;10.018;2023-08-08T14:40:45;19.40;82.90
16287;DHT22;8251;53.568;10.018;2023-08-08T14:43:12;19.30;82.90
16287;DHT22;8251;53.568;10.018;2023-08-08T14:45:39;19.30;83.70
16287;DHT22;8251;53.568;10.018;2023-08-08T14:48:07;19.40;84.10
16287;DHT22;8251;53.568;10.018;2023-08-08T14:50:34;19.40;84.00
16287;DHT22;8251;53.568;10.018;2023-08-08T14:53:01;19.40;82.80
16287;DHT22;8251;53.568;10.018;2023-08-08T14:55:28;19.40;82.00
16287;DHT22;8251;53.568;10.018;2023-08-08T14:57:56;19.50;81.80
16287;DHT22;8251;53.568;10.018;2023-08-08T15:00:23;19.50;82.30
16287;DHT22;8251;53.568;10.018;2023-08-08T15:02:50;19.50;81.30
16287;DHT22;8251;53.568;10.018;2023-08-08T15:05:18;19.50;81.00
16287;DHT22;8251;53.568;10.018;2023-08-08T15:07:45;19.50;80.60
16287;DHT22;8251;53.568;10.018;2023-08-08T15:10:12;19.50;81.00
16287;DHT22;8251;53.568;10.018;2023-08-08T15:12:39;19.40;79.90
16287;DHT22;8251;53.568;10.018;2023-08-08T15:15:07;19.40;79.70
16287;DHT22;8251;53.568;10.018;2023-08-08T15:17:34;19.40;78.80
16287;DHT22;8251;53.568;10.018;2023-08-08T15:20:01;19.40;78.20
16287;DHT22;8251;53.568;10.018;2023-08-08T15:22:29;19.30;78.10
16287;DHT22;8251;53.568;10.018;2023-08-08T15:24:56;19.30;78.20
16287;DHT22;8251;53.568;10.018;2023-08-08T15:27:23;19.20;79.10
16287;DHT22;8251;53.568;10.018;2023-08-08T15:29:50;19.00;79.40
16287;DHT22;8251;53.568;10.018;2023-08-08T15:32:25;19.00;79.30
16287;DHT22;8251;53.568;10.018;2023-08-08T15:35:01;18.90;79.30